sensor_id;sensor_type;location;lat;lon;timestamp;P1;durP1;ratioP1;P2;durP2;ratioP2
71303;SDS011;59091;47.446;19.148;2023-05-02T00:01:53;6.25;;;2.60;;
71303;SDS011;59091;47.446;19.148;2023-05-02T00:04:18;2.55;;;2.33;;
71303;SDS011;59091;47.446;19.148;2023-05-02T00:06:44;3.75;;;2.20;;
71303;SDS011;59091;47.446;19.148;2023-05-02T00:09:10;3.40;;;2.28;;
71303;SDS011;59091;47.446;19.148;2023-05-02T00:11:36;3.50;;;2.38;;
71303;SDS011;59091;47.446;19.148;2023-05-02T00:14:02;2.35;;;2.15;;
71303;SDS011;59091;47.446;19.148;2023-05-02T00:16:27;5.43;;;2.42;;
71303;SDS011;59091;47.446;19.148;2023-05-02T00:18:53;5.88;;;2.60;;
71303;SDS011;59091;47.446;19.148;2023-05-02T00:21:18;5.95;;;2.78;;
71303;SDS011;59091;47.446;19.148;2023-05-02T00:23:44;4.53;;;2.70;;
71303;SDS011;59091;47.446;19.148;2023-05-02T00:26:09;3.53;;;2.30;;
71303;SDS011;59091;47.446;19.148;2023-05-02T00:28:35;5.28;;;2.58;;
71303;SDS011;59091;47.446;19.148;2023-05-02T00:31:00;3.10;;;2.50;;
71303;SDS011;59091;47.446;19.148;2023-05-02T00:33:26;6.68;;;2.63;;
71303;SDS011;59091;47.446;19.148;2023-05-02T00:35:51;4.30;;;2.65;;
71303;SDS011;59091;47.446;19.148;2023-05-02T00:38:17;4.55;;;2.78;;
71303;SDS011;59091;47.446;19.148;2023-05-02T00:40:46;3.60;;;2.63;;
71303;SDS011;59091;47.446;19.148;2023-05-02T00:43:13;3.63;;;2.45;;
71303;SDS011;59091;47.446;19.148;2023-05-02T00:45:39;6.50;;;2.67;;
71303;SDS011;59091;47.446;19.148;2023-05-02T00:48:06;4.35;;;2.72;;
71303;SDS011;59091;47.446;19.148;2023-05-02T00:50:34;4.47;;;2.60;;
71303;SDS011;59091;47.446;19.148;2023-05-02T00:53:02;6.03;;;2.47;;
71303;SDS011;59091;47.446;19.148;2023-05-02T00:55:30;3.13;;;2.50;;
71303;SDS011;59091;47.446;19.148;2023-05-02T00:57:56;4.05;;;2.50;;
71303;SDS011;59091;47.446;19.148;2023-05-02T01:00:23;5.35;;;2.22;;
71303;SDS011;59091;47.446;19.148;2023-05-02T01:03:04;4.45;;;2.53;;
71303;SDS011;59091;47.446;19.148;2023-05-02T01:06:00;3.95;;;2.75;;
71303;SDS011;59091;47.446;19.148;2023-05-02T01:11:16;4.57;;;2.60;;
71303;SDS011;59091;47.446;19.148;2023-05-02T01:13:55;3.70;;;2.45;;
71303;SDS011;59091;47.446;19.148;2023-05-02T01:16:23;3.28;;;2.17;;
71303;SDS011;59091;47.446;19.148;2023-05-02T01:18:49;3.05;;;2.45;;
71303;SDS011;59091;47.446;19.148;2023-05-02T01:21:16;3.15;;;2.40;;
71303;SDS011;59091;47.446;19.148;2023-05-02T01:24:02;7.75;;;2.45;;
71303;SDS011;59091;47.446;19.148;2023-05-02T01:29:37;5.38;;;2.42;;
71303;SDS011;59091;47.446;19.148;2023-05-02T01:32:05;4.88;;;2.63;;
71303;SDS011;59091;47.446;19.148;2023-05-02T01:34:32;6.50;;;2.70;;
71303;SDS011;59091;47.446;19.148;2023-05-02T01:37:00;5.53;;;2.63;;
71303;SDS011;59091;47.446;19.148;2023-05-02T01:39:27;2.72;;;2.40;;
71303;SDS011;59091;47.446;19.148;2023-05-02T01:41:54;2.97;;;2.40;;
71303;SDS011;59091;47.446;19.148;2023-05-02T01:44:22;3.78;;;2.40;;
71303;SDS011;59091;47.446;19.148;2023-05-02T01:46:49;5.28;;;2.47;;
71303;SDS011;59091;47.446;19.148;2023-05-02T01:49:17;5.10;;;2.42;;
71303;SDS011;59091;47.446;19.148;2023-05-02T01:51:45;5.60;;;2.53;;
71303;SDS011;59091;47.446;19.148;2023-05-02T01:54:12;3.13;;;2.28;;
71303;SDS011;59091;47.446;19.148;2023-05-02T01:56:39;5.95;;;2.63;;
71303;SDS011;59091;47.446;19.148;2023-05-02T01:59:07;3.88;;;2.55;;
71303;SDS011;59091;47.446;19.148;2023-05-02T02:01:40;4.90;;;2.70;;
71303;SDS011;59091;47.446;19.148;2023-05-02T02:04:08;5.22;;;2.83;;
71303;SDS011;59091;47.446;19.148;2023-05-02T02:06:35;4.32;;;2.30;;
71303;SDS011;59091;47.446;19.148;2023-05-02T02:09:01;7.75;;;3.05;;
71303;SDS011;59091;47.446;19.148;2023-05-02T02:11:34;4.60;;;2.70;;
71303;SDS011;59091;47.446;19.148;2023-05-02T02:14:11;5.07;;;2.67;;
71303;SDS011;59091;47.446;19.148;2023-05-02T02:16:42;4.72;;;2.85;;
71303;SDS011;59091;47.446;19.148;2023-05-02T02:19:09;7.15;;;2.88;;
71303;SDS011;59091;47.446;19.148;2023-05-02T02:21:37;6.95;;;3.33;;
71303;SDS011;59091;47.446;19.148;2023-05-02T02:24:05;4.45;;;2.88;;
71303;SDS011;59091;47.446;19.148;2023-05-02T02:26:31;4.30;;;3.10;;
71303;SDS011;59091;47.446;19.148;2023-05-02T02:28:59;4.43;;;2.95;;
71303;SDS011;59091;47.446;19.148;2023-05-02T02:31:34;4.00;;;3.03;;
71303;SDS011;59091;47.446;19.148;2023-05-02T02:34:00;3.67;;;2.67;;
71303;SDS011;59091;47.446;19.148;2023-05-02T02:38:22;3.40;;;2.90;;
71303;SDS011;59091;47.446;19.148;2023-05-02T02:41:27;4.45;;;3.08;;
71303;SDS011;59091;47.446;19.148;2023-05-02T02:51:51;6.20;;;3.30;;
71303;SDS011;59091;47.446;19.148;2023-05-02T02:56:57;5.57;;;3.35;;
71303;SDS011;59091;47.446;19.148;2023-05-02T02:59:28;7.05;;;3.42;;
71303;SDS011;59091;47.446;19.148;2023-05-02T03:02:03;5.38;;;3.55;;
71303;SDS011;59091;47.446;19.148;2023-05-02T03:04:32;8.68;;;3.20;;
71303;SDS011;59091;47.446;19.148;2023-05-02T03:06:59;5.72;;;3.22;;
71303;SDS011;59091;47.446;19.148;2023-05-02T03:09:25;8.05;;;3.70;;
71303;SDS011;59091;47.446;19.148;2023-05-02T03:11:54;6.00;;;3.47;;
71303;SDS011;59091;47.446;19.148;2023-05-02T03:14:20;3.38;;;3.03;;
71303;SDS011;59091;47.446;19.148;2023-05-02T03:16:46;7.63;;;3.47;;
71303;SDS011;59091;47.446;19.148;2023-05-02T03:19:12;5.40;;;3.42;;
71303;SDS011;59091;47.446;19.148;2023-05-02T03:21:37;12.27;;;3.65;;
71303;SDS011;59091;47.446;19.148;2023-05-02T03:24:03;8.60;;;3.58;;
71303;SDS011;59091;47.446;19.148;2023-05-02T03:26:29;5.85;;;3.50;;
71303;SDS011;59091;47.446;19.148;2023-05-02T03:28:55;7.63;;;3.35;;
71303;SDS011;59091;47.446;19.148;2023-05-02T03:31:20;5.85;;;3.53;;
71303;SDS011;59091;47.446;19.148;2023-05-02T03:33:46;6.90;;;3.40;;
71303;SDS011;59091;47.446;19.148;2023-05-02T03:36:12;7.72;;;4.15;;
71303;SDS011;59091;47.446;19.148;2023-05-02T03:38:38;8.52;;;3.85;;
71303;SDS011;59091;47.446;19.148;2023-05-02T03:41:04;6.57;;;4.72;;
71303;SDS011;59091;47.446;19.148;2023-05-02T03:43:30;8.27;;;4.03;;
71303;SDS011;59091;47.446;19.148;2023-05-02T03:45:55;7.15;;;4.03;;
71303;SDS011;59091;47.446;19.148;2023-05-02T03:48:21;8.95;;;3.92;;
71303;SDS011;59091;47.446;19.148;2023-05-02T03:50:46;5.30;;;3.80;;
71303;SDS011;59091;47.446;19.148;2023-05-02T03:53:13;7.90;;;4.10;;
71303;SDS011;59091;47.446;19.148;2023-05-02T03:55:40;6.70;;;4.15;;
71303;SDS011;59091;47.446;19.148;2023-05-02T03:58:09;6.05;;;4.15;;
71303;SDS011;59091;47.446;19.148;2023-05-02T04:00:34;5.13;;;3.92;;
71303;SDS011;59091;47.446;19.148;2023-05-02T04:03:00;5.97;;;4.30;;
71303;SDS011;59091;47.446;19.148;2023-05-02T04:05:26;8.35;;;3.97;;
71303;SDS011;59091;47.446;19.148;2023-05-02T04:07:52;7.47;;;4.07;;
71303;SDS011;59091;47.446;19.148;2023-05-02T04:10:17;4.93;;;3.58;;
71303;SDS011;59091;47.446;19.148;2023-05-02T04:12:43;6.95;;;4.10;;
71303;SDS011;59091;47.446;19.148;2023-05-02T04:15:09;5.47;;;3.72;;
71303;SDS011;59091;47.446;19.148;2023-05-02T04:17:35;12.90;;;4.05;;
71303;SDS011;59091;47.446;19.148;2023-05-02T04:20:00;6.10;;;3.67;;
71303;SDS011;59091;47.446;19.148;2023-05-02T04:22:26;6.18;;;3.85;;
71303;SDS011;59091;47.446;19.148;2023-05-02T04:24:52;6.32;;;3.55;;
71303;SDS011;59091;47.446;19.148;2023-05-02T04:27:18;10.00;;;4.25;;
71303;SDS011;59091;47.446;19.148;2023-05-02T04:29:46;6.03;;;3.65;;
71303;SDS011;59091;47.446;19.148;2023-05-02T04:32:12;6.75;;;3.80;;
71303;SDS011;59091;47.446;19.148;2023-05-02T04:34:38;6.88;;;4.20;;
71303;SDS011;59091;47.446;19.148;2023-05-02T04:37:03;5.25;;;3.85;;
71303;SDS011;59091;47.446;19.148;2023-05-02T04:39:28;8.90;;;3.88;;
71303;SDS011;59091;47.446;19.148;2023-05-02T04:41:54;9.75;;;3.85;;
71303;SDS011;59091;47.446;19.148;2023-05-02T04:44:19;10.60;;;3.92;;
71303;SDS011;59091;47.446;19.148;2023-05-02T04:46:45;6.95;;;4.32;;
71303;SDS011;59091;47.446;19.148;2023-05-02T04:49:10;9.18;;;5.00;;
71303;SDS011;59091;47.446;19.148;2023-05-02T04:51:36;6.30;;;4.55;;
71303;SDS011;59091;47.446;19.148;2023-05-02T04:54:01;9.82;;;3.88;;
71303;SDS011;59091;47.446;19.148;2023-05-02T04:56:27;11.82;;;3.65;;
71303;SDS011;59091;47.446;19.148;2023-05-02T04:58:52;6.38;;;4.00;;
71303;SDS011;59091;47.446;19.148;2023-05-02T05:01:18;9.02;;;4.20;;
71303;SDS011;59091;47.446;19.148;2023-05-02T05:03:43;9.85;;;4.22;;
71303;SDS011;59091;47.446;19.148;2023-05-02T05:06:09;5.93;;;4.03;;
71303;SDS011;59091;47.446;19.148;2023-05-02T05:08:34;7.47;;;4.18;;
71303;SDS011;59091;47.446;19.148;2023-05-02T05:10:59;5.15;;;3.88;;
71303;SDS011;59091;47.446;19.148;2023-05-02T05:13:25;7.90;;;4.20;;
71303;SDS011;59091;47.446;19.148;2023-05-02T05:15:52;7.40;;;4.47;;
71303;SDS011;59091;47.446;19.148;2023-05-02T05:18:18;6.88;;;4.50;;
71303;SDS011;59091;47.446;19.148;2023-05-02T05:20:43;6.97;;;3.95;;
71303;SDS011;59091;47.446;19.148;2023-05-02T05:23:09;7.35;;;4.05;;
71303;SDS011;59091;47.446;19.148;2023-05-02T05:25:34;8.90;;;3.90;;
71303;SDS011;59091;47.446;19.148;2023-05-02T05:28:00;5.57;;;4.00;;
71303;SDS011;59091;47.446;19.148;2023-05-02T05:30:25;9.90;;;4.30;;
71303;SDS011;59091;47.446;19.148;2023-05-02T05:32:51;8.27;;;4.70;;
71303;SDS011;59091;47.446;19.148;2023-05-02T05:35:17;7.55;;;4.57;;
71303;SDS011;59091;47.446;19.148;2023-05-02T05:37:42;7.50;;;4.50;;
71303;SDS011;59091;47.446;19.148;2023-05-02T05:40:08;6.28;;;4.32;;
71303;SDS011;59091;47.446;19.148;2023-05-02T05:42:34;9.35;;;4.40;;
71303;SDS011;59091;47.446;19.148;2023-05-02T05:45:00;9.18;;;5.22;;
71303;SDS011;59091;47.446;19.148;2023-05-02T05:47:25;6.30;;;4.50;;
71303;SDS011;59091;47.446;19.148;2023-05-02T05:49:51;7.30;;;4.85;;
71303;SDS011;59091;47.446;19.148;2023-05-02T05:52:20;8.27;;;5.05;;
71303;SDS011;59091;47.446;19.148;2023-05-02T05:54:46;8.18;;;5.55;;
71303;SDS011;59091;47.446;19.148;2023-05-02T05:57:11;6.00;;;4.20;;
71303;SDS011;59091;47.446;19.148;2023-05-02T05:59:36;6.30;;;4.07;;
71303;SDS011;59091;47.446;19.148;2023-05-02T06:02:02;6.45;;;4.10;;
71303;SDS011;59091;47.446;19.148;2023-05-02T06:04:28;7.57;;;3.67;;
71303;SDS011;59091;47.446;19.148;2023-05-02T06:06:53;7.05;;;4.20;;
71303;SDS011;59091;47.446;19.148;2023-05-02T06:09:19;3.97;;;3.42;;
71303;SDS011;59091;47.446;19.148;2023-05-02T06:11:44;6.15;;;3.80;;
71303;SDS011;59091;47.446;19.148;2023-05-02T06:14:10;6.78;;;3.55;;
71303;SDS011;59091;47.446;19.148;2023-05-02T06:16:35;6.78;;;3.78;;
71303;SDS011;59091;47.446;19.148;2023-05-02T06:19:00;6.63;;;3.65;;
71303;SDS011;59091;47.446;19.148;2023-05-02T06:21:26;9.18;;;3.53;;
71303;SDS011;59091;47.446;19.148;2023-05-02T06:23:51;8.88;;;4.07;;
71303;SDS011;59091;47.446;19.148;2023-05-02T06:26:17;13.45;;;3.80;;
71303;SDS011;59091;47.446;19.148;2023-05-02T06:28:42;5.93;;;3.40;;
71303;SDS011;59091;47.446;19.148;2023-05-02T06:31:08;10.25;;;4.18;;
71303;SDS011;59091;47.446;19.148;2023-05-02T06:33:35;7.10;;;3.75;;
71303;SDS011;59091;47.446;19.148;2023-05-02T06:36:01;4.22;;;3.25;;
71303;SDS011;59091;47.446;19.148;2023-05-02T06:38:26;4.13;;;3.60;;
71303;SDS011;59091;47.446;19.148;2023-05-02T06:40:52;9.60;;;3.60;;
71303;SDS011;59091;47.446;19.148;2023-05-02T06:43:17;6.50;;;3.88;;
71303;SDS011;59091;47.446;19.148;2023-05-02T06:45:43;4.80;;;3.72;;
71303;SDS011;59091;47.446;19.148;2023-05-02T06:48:09;7.10;;;3.70;;
71303;SDS011;59091;47.446;19.148;2023-05-02T06:50:34;12.45;;;3.60;;
71303;SDS011;59091;47.446;19.148;2023-05-02T06:53:00;5.78;;;3.60;;
71303;SDS011;59091;47.446;19.148;2023-05-02T06:55:26;9.25;;;3.53;;
71303;SDS011;59091;47.446;19.148;2023-05-02T06:57:52;7.82;;;3.45;;
71303;SDS011;59091;47.446;19.148;2023-05-02T07:00:18;6.43;;;3.60;;
71303;SDS011;59091;47.446;19.148;2023-05-02T07:02:44;11.23;;;3.65;;
71303;SDS011;59091;47.446;19.148;2023-05-02T07:05:11;11.02;;;3.35;;
71303;SDS011;59091;47.446;19.148;2023-05-02T07:07:36;6.78;;;3.92;;
71303;SDS011;59091;47.446;19.148;2023-05-02T07:10:02;4.55;;;3.47;;
71303;SDS011;59091;47.446;19.148;2023-05-02T07:12:28;7.00;;;4.00;;
71303;SDS011;59091;47.446;19.148;2023-05-02T07:14:53;8.38;;;4.15;;
71303;SDS011;59091;47.446;19.148;2023-05-02T07:17:19;12.52;;;4.95;;
71303;SDS011;59091;47.446;19.148;2023-05-02T07:19:44;7.35;;;3.50;;
71303;SDS011;59091;47.446;19.148;2023-05-02T07:22:10;4.80;;;3.30;;
71303;SDS011;59091;47.446;19.148;2023-05-02T07:24:38;4.38;;;3.42;;
71303;SDS011;59091;47.446;19.148;2023-05-02T07:27:05;4.75;;;3.70;;
71303;SDS011;59091;47.446;19.148;2023-05-02T07:29:31;6.63;;;3.60;;
71303;SDS011;59091;47.446;19.148;2023-05-02T07:31:56;7.50;;;3.60;;
71303;SDS011;59091;47.446;19.148;2023-05-02T07:34:22;10.05;;;4.05;;
71303;SDS011;59091;47.446;19.148;2023-05-02T07:36:47;4.90;;;3.85;;
71303;SDS011;59091;47.446;19.148;2023-05-02T07:39:13;8.65;;;4.07;;
71303;SDS011;59091;47.446;19.148;2023-05-02T07:41:39;4.72;;;3.55;;
71303;SDS011;59091;47.446;19.148;2023-05-02T07:44:04;6.45;;;3.67;;
71303;SDS011;59091;47.446;19.148;2023-05-02T07:46:29;10.02;;;3.67;;
71303;SDS011;59091;47.446;19.148;2023-05-02T07:48:55;8.95;;;3.58;;
71303;SDS011;59091;47.446;19.148;2023-05-02T07:51:21;8.13;;;4.00;;
71303;SDS011;59091;47.446;19.148;2023-05-02T07:53:48;5.03;;;3.70;;
71303;SDS011;59091;47.446;19.148;2023-05-02T07:56:15;7.43;;;3.50;;
71303;SDS011;59091;47.446;19.148;2023-05-02T07:58:41;8.50;;;3.20;;
71303;SDS011;59091;47.446;19.148;2023-05-02T08:01:06;8.70;;;3.60;;
71303;SDS011;59091;47.446;19.148;2023-05-02T08:03:32;5.07;;;3.33;;
71303;SDS011;59091;47.446;19.148;2023-05-02T08:05:57;4.13;;;2.90;;
71303;SDS011;59091;47.446;19.148;2023-05-02T08:08:23;5.40;;;3.53;;
71303;SDS011;59091;47.446;19.148;2023-05-02T08:10:48;5.72;;;3.20;;
71303;SDS011;59091;47.446;19.148;2023-05-02T08:13:15;6.35;;;3.10;;
71303;SDS011;59091;47.446;19.148;2023-05-02T08:15:41;7.13;;;3.70;;
71303;SDS011;59091;47.446;19.148;2023-05-02T08:18:06;11.07;;;3.42;;
71303;SDS011;59091;47.446;19.148;2023-05-02T08:20:32;3.22;;;2.92;;
71303;SDS011;59091;47.446;19.148;2023-05-02T08:22:57;4.55;;;3.38;;
71303;SDS011;59091;47.446;19.148;2023-05-02T08:25:23;4.78;;;3.10;;
71303;SDS011;59091;47.446;19.148;2023-05-02T08:27:48;5.68;;;3.13;;
71303;SDS011;59091;47.446;19.148;2023-05-02T08:30:14;9.63;;;3.75;;
71303;SDS011;59091;47.446;19.148;2023-05-02T08:32:39;6.05;;;3.20;;
71303;SDS011;59091;47.446;19.148;2023-05-02T08:35:05;9.65;;;3.30;;
71303;SDS011;59091;47.446;19.148;2023-05-02T08:37:31;4.05;;;2.92;;
71303;SDS011;59091;47.446;19.148;2023-05-02T08:39:56;7.75;;;3.33;;
71303;SDS011;59091;47.446;19.148;2023-05-02T08:42:21;8.73;;;2.70;;
71303;SDS011;59091;47.446;19.148;2023-05-02T08:44:48;4.90;;;3.00;;
71303;SDS011;59091;47.446;19.148;2023-05-02T08:47:13;3.95;;;2.92;;
71303;SDS011;59091;47.446;19.148;2023-05-02T08:49:39;7.68;;;3.00;;
71303;SDS011;59091;47.446;19.148;2023-05-02T08:52:06;8.50;;;3.10;;
71303;SDS011;59091;47.446;19.148;2023-05-02T08:54:35;5.35;;;2.83;;
71303;SDS011;59091;47.446;19.148;2023-05-02T08:57:02;6.22;;;2.72;;
71303;SDS011;59091;47.446;19.148;2023-05-02T08:59:28;6.55;;;2.78;;
71303;SDS011;59091;47.446;19.148;2023-05-02T09:01:57;5.78;;;2.72;;
71303;SDS011;59091;47.446;19.148;2023-05-02T09:04:25;3.35;;;2.60;;
71303;SDS011;59091;47.446;19.148;2023-05-02T09:06:55;3.47;;;2.60;;
71303;SDS011;59091;47.446;19.148;2023-05-02T09:09:20;3.72;;;3.00;;
71303;SDS011;59091;47.446;19.148;2023-05-02T09:11:46;3.03;;;2.70;;
71303;SDS011;59091;47.446;19.148;2023-05-02T09:14:13;2.83;;;2.58;;
71303;SDS011;59091;47.446;19.148;2023-05-02T09:16:40;5.18;;;3.05;;
71303;SDS011;59091;47.446;19.148;2023-05-02T09:19:05;5.97;;;3.00;;
71303;SDS011;59091;47.446;19.148;2023-05-02T09:21:34;9.30;;;2.60;;
71303;SDS011;59091;47.446;19.148;2023-05-02T09:24:02;5.85;;;2.88;;
71303;SDS011;59091;47.446;19.148;2023-05-02T09:26:42;7.93;;;2.85;;
71303;SDS011;59091;47.446;19.148;2023-05-02T09:29:20;3.72;;;2.40;;
71303;SDS011;59091;47.446;19.148;2023-05-02T09:31:46;6.68;;;2.97;;
71303;SDS011;59091;47.446;19.148;2023-05-02T09:34:12;7.60;;;2.70;;
71303;SDS011;59091;47.446;19.148;2023-05-02T09:36:47;4.22;;;2.78;;
71303;SDS011;59091;47.446;19.148;2023-05-02T09:39:21;9.00;;;3.00;;
71303;SDS011;59091;47.446;19.148;2023-05-02T09:41:48;4.88;;;2.70;;
71303;SDS011;59091;47.446;19.148;2023-05-02T09:44:15;11.07;;;3.03;;
71303;SDS011;59091;47.446;19.148;2023-05-02T09:46:43;3.35;;;2.60;;
71303;SDS011;59091;47.446;19.148;2023-05-02T09:49:17;7.28;;;3.10;;
71303;SDS011;59091;47.446;19.148;2023-05-02T09:51:43;4.90;;;2.60;;
71303;SDS011;59091;47.446;19.148;2023-05-02T09:54:09;4.88;;;2.60;;
71303;SDS011;59091;47.446;19.148;2023-05-02T09:56:50;5.65;;;2.78;;
71303;SDS011;59091;47.446;19.148;2023-05-02T09:59:17;3.17;;;2.70;;
71303;SDS011;59091;47.446;19.148;2023-05-02T10:01:42;3.42;;;2.85;;
71303;SDS011;59091;47.446;19.148;2023-05-02T10:04:11;5.18;;;2.92;;
71303;SDS011;59091;47.446;19.148;2023-05-02T10:06:41;7.35;;;2.70;;
71303;SDS011;59091;47.446;19.148;2023-05-02T10:09:08;10.52;;;3.10;;
71303;SDS011;59091;47.446;19.148;2023-05-02T10:11:34;4.15;;;3.05;;
71303;SDS011;59091;47.446;19.148;2023-05-02T10:14:03;3.08;;;2.60;;
71303;SDS011;59091;47.446;19.148;2023-05-02T10:16:30;3.20;;;2.72;;
71303;SDS011;59091;47.446;19.148;2023-05-02T10:19:02;6.22;;;3.00;;
71303;SDS011;59091;47.446;19.148;2023-05-02T10:21:34;3.38;;;2.75;;
71303;SDS011;59091;47.446;19.148;2023-05-02T10:24:01;6.65;;;2.90;;
71303;SDS011;59091;47.446;19.148;2023-05-02T10:26:28;9.25;;;3.05;;
71303;SDS011;59091;47.446;19.148;2023-05-02T10:28:56;4.07;;;3.05;;
71303;SDS011;59091;47.446;19.148;2023-05-02T10:31:23;12.02;;;3.00;;
71303;SDS011;59091;47.446;19.148;2023-05-02T10:33:51;7.13;;;2.80;;
71303;SDS011;59091;47.446;19.148;2023-05-02T10:36:20;5.93;;;3.15;;
71303;SDS011;59091;47.446;19.148;2023-05-02T10:38:46;3.28;;;2.97;;
71303;SDS011;59091;47.446;19.148;2023-05-02T10:41:17;4.70;;;2.88;;
71303;SDS011;59091;47.446;19.148;2023-05-02T10:43:46;4.20;;;2.72;;
71303;SDS011;59091;47.446;19.148;2023-05-02T10:46:28;7.07;;;2.92;;
71303;SDS011;59091;47.446;19.148;2023-05-02T10:51:30;4.68;;;2.88;;
71303;SDS011;59091;47.446;19.148;2023-05-02T10:59:37;6.60;;;2.90;;
71303;SDS011;59091;47.446;19.148;2023-05-02T11:02:05;3.83;;;2.85;;
71303;SDS011;59091;47.446;19.148;2023-05-02T11:05:04;3.58;;;2.95;;
71303;SDS011;59091;47.446;19.148;2023-05-02T11:07:34;3.28;;;2.80;;
71303;SDS011;59091;47.446;19.148;2023-05-02T11:12:42;6.88;;;3.25;;
71303;SDS011;59091;47.446;19.148;2023-05-02T11:15:11;4.70;;;3.15;;
71303;SDS011;59091;47.446;19.148;2023-05-02T11:20:28;2.72;;;2.53;;
71303;SDS011;59091;47.446;19.148;2023-05-02T11:22:56;6.88;;;2.67;;
71303;SDS011;59091;47.446;19.148;2023-05-02T11:30:58;7.75;;;2.47;;
71303;SDS011;59091;47.446;19.148;2023-05-02T11:33:25;5.65;;;2.50;;
71303;SDS011;59091;47.446;19.148;2023-05-02T11:35:52;4.32;;;2.38;;
71303;SDS011;59091;47.446;19.148;2023-05-02T11:38:18;9.80;;;2.83;;
71303;SDS011;59091;47.446;19.148;2023-05-02T11:40:55;10.30;;;3.13;;
71303;SDS011;59091;47.446;19.148;2023-05-02T11:43:25;10.52;;;2.65;;
71303;SDS011;59091;47.446;19.148;2023-05-02T11:45:52;5.97;;;2.67;;
71303;SDS011;59091;47.446;19.148;2023-05-02T11:48:19;12.43;;;2.70;;
71303;SDS011;59091;47.446;19.148;2023-05-02T11:50:56;3.60;;;2.70;;
71303;SDS011;59091;47.446;19.148;2023-05-02T11:53:26;7.07;;;2.75;;
71303;SDS011;59091;47.446;19.148;2023-05-02T11:56:02;8.23;;;2.83;;
71303;SDS011;59091;47.446;19.148;2023-05-02T11:58:29;11.05;;;2.47;;
71303;SDS011;59091;47.446;19.148;2023-05-02T12:01:10;7.20;;;2.35;;
71303;SDS011;59091;47.446;19.148;2023-05-02T12:03:39;12.38;;;2.97;;
71303;SDS011;59091;47.446;19.148;2023-05-02T12:08:41;4.25;;;2.35;;
71303;SDS011;59091;47.446;19.148;2023-05-02T12:11:07;6.38;;;2.60;;
71303;SDS011;59091;47.446;19.148;2023-05-02T12:13:33;5.72;;;2.22;;
71303;SDS011;59091;47.446;19.148;2023-05-02T12:15:59;10.68;;;2.35;;
71303;SDS011;59091;47.446;19.148;2023-05-02T12:18:25;5.90;;;2.60;;
71303;SDS011;59091;47.446;19.148;2023-05-02T12:20:51;12.48;;;2.50;;
71303;SDS011;59091;47.446;19.148;2023-05-02T12:23:18;8.75;;;2.63;;
71303;SDS011;59091;47.446;19.148;2023-05-02T12:25:45;13.75;;;2.35;;
71303;SDS011;59091;47.446;19.148;2023-05-02T12:28:11;15.32;;;2.35;;
71303;SDS011;59091;47.446;19.148;2023-05-02T12:30:37;8.40;;;2.25;;
71303;SDS011;59091;47.446;19.148;2023-05-02T12:33:04;4.68;;;2.00;;
71303;SDS011;59091;47.446;19.148;2023-05-02T12:35:30;12.25;;;2.63;;
71303;SDS011;59091;47.446;19.148;2023-05-02T12:38:10;12.85;;;3.00;;
71303;SDS011;59091;47.446;19.148;2023-05-02T12:40:50;3.40;;;2.40;;
71303;SDS011;59091;47.446;19.148;2023-05-02T12:43:17;5.43;;;2.25;;
71303;SDS011;59091;47.446;19.148;2023-05-02T12:45:44;6.15;;;2.17;;
71303;SDS011;59091;47.446;19.148;2023-05-02T12:50:50;12.05;;;2.63;;
71303;SDS011;59091;47.446;19.148;2023-05-02T12:53:32;7.93;;;2.20;;
71303;SDS011;59091;47.446;19.148;2023-05-02T12:56:02;13.95;;;2.63;;
71303;SDS011;59091;47.446;19.148;2023-05-02T12:58:28;7.47;;;2.40;;
71303;SDS011;59091;47.446;19.148;2023-05-02T13:00:53;9.50;;;2.70;;
71303;SDS011;59091;47.446;19.148;2023-05-02T13:03:19;11.77;;;2.50;;
71303;SDS011;59091;47.446;19.148;2023-05-02T13:05:46;7.40;;;2.72;;
71303;SDS011;59091;47.446;19.148;2023-05-02T13:08:11;10.23;;;2.40;;
71303;SDS011;59091;47.446;19.148;2023-05-02T13:10:37;18.20;;;2.40;;
71303;SDS011;59091;47.446;19.148;2023-05-02T13:13:02;9.02;;;2.40;;
71303;SDS011;59091;47.446;19.148;2023-05-02T13:15:28;8.85;;;2.53;;
71303;SDS011;59091;47.446;19.148;2023-05-02T13:17:53;14.55;;;2.75;;
71303;SDS011;59091;47.446;19.148;2023-05-02T13:20:18;15.38;;;2.40;;
71303;SDS011;59091;47.446;19.148;2023-05-02T13:22:44;14.50;;;2.72;;
71303;SDS011;59091;47.446;19.148;2023-05-02T13:25:09;4.43;;;2.33;;
71303;SDS011;59091;47.446;19.148;2023-05-02T13:27:36;9.75;;;2.70;;
71303;SDS011;59091;47.446;19.148;2023-05-02T13:30:01;9.73;;;2.40;;
71303;SDS011;59091;47.446;19.148;2023-05-02T13:32:27;4.53;;;2.47;;
71303;SDS011;59091;47.446;19.148;2023-05-02T13:34:53;11.02;;;2.65;;
71303;SDS011;59091;47.446;19.148;2023-05-02T13:37:18;3.15;;;2.20;;
71303;SDS011;59091;47.446;19.148;2023-05-02T13:39:44;3.88;;;2.53;;
71303;SDS011;59091;47.446;19.148;2023-05-02T13:42:10;5.10;;;2.40;;
71303;SDS011;59091;47.446;19.148;2023-05-02T13:44:35;10.80;;;2.80;;
71303;SDS011;59091;47.446;19.148;2023-05-02T13:47:01;7.60;;;2.45;;
71303;SDS011;59091;47.446;19.148;2023-05-02T13:49:26;6.93;;;2.83;;
71303;SDS011;59091;47.446;19.148;2023-05-02T13:51:52;7.25;;;2.70;;
71303;SDS011;59091;47.446;19.148;2023-05-02T13:54:17;13.70;;;2.60;;
71303;SDS011;59091;47.446;19.148;2023-05-02T13:56:43;6.85;;;2.38;;
71303;SDS011;59091;47.446;19.148;2023-05-02T13:59:08;12.18;;;3.03;;
71303;SDS011;59091;47.446;19.148;2023-05-02T14:01:34;13.13;;;2.63;;
71303;SDS011;59091;47.446;19.148;2023-05-02T14:03:59;6.90;;;3.00;;
71303;SDS011;59091;47.446;19.148;2023-05-02T14:06:30;8.73;;;2.40;;
71303;SDS011;59091;47.446;19.148;2023-05-02T14:08:56;19.85;;;2.90;;
71303;SDS011;59091;47.446;19.148;2023-05-02T14:11:22;15.88;;;2.53;;
71303;SDS011;59091;47.446;19.148;2023-05-02T14:13:47;22.40;;;3.03;;
71303;SDS011;59091;47.446;19.148;2023-05-02T14:16:12;10.35;;;2.97;;
71303;SDS011;59091;47.446;19.148;2023-05-02T14:18:38;11.68;;;2.90;;
71303;SDS011;59091;47.446;19.148;2023-05-02T14:21:03;9.35;;;2.85;;
71303;SDS011;59091;47.446;19.148;2023-05-02T14:23:29;12.13;;;3.05;;
71303;SDS011;59091;47.446;19.148;2023-05-02T14:25:54;7.43;;;2.85;;
71303;SDS011;59091;47.446;19.148;2023-05-02T14:28:20;14.60;;;3.00;;
71303;SDS011;59091;47.446;19.148;2023-05-02T14:30:49;10.90;;;3.03;;
71303;SDS011;59091;47.446;19.148;2023-05-02T14:33:15;4.13;;;2.58;;
71303;SDS011;59091;47.446;19.148;2023-05-02T14:35:40;7.22;;;2.50;;
71303;SDS011;59091;47.446;19.148;2023-05-02T14:38:06;2.70;;;2.50;;
71303;SDS011;59091;47.446;19.148;2023-05-02T14:40:31;4.78;;;2.70;;
71303;SDS011;59091;47.446;19.148;2023-05-02T14:42:57;6.10;;;2.78;;
71303;SDS011;59091;47.446;19.148;2023-05-02T14:45:23;8.85;;;3.05;;
71303;SDS011;59091;47.446;19.148;2023-05-02T14:47:48;14.43;;;2.58;;
71303;SDS011;59091;47.446;19.148;2023-05-02T14:50:14;6.47;;;2.40;;
71303;SDS011;59091;47.446;19.148;2023-05-02T14:52:40;9.10;;;2.90;;
71303;SDS011;59091;47.446;19.148;2023-05-02T14:55:06;4.53;;;2.92;;
71303;SDS011;59091;47.446;19.148;2023-05-02T14:57:33;8.10;;;3.15;;
71303;SDS011;59091;47.446;19.148;2023-05-02T14:59:58;5.85;;;2.50;;
71303;SDS011;59091;47.446;19.148;2023-05-02T15:02:24;7.97;;;3.00;;
71303;SDS011;59091;47.446;19.148;2023-05-02T15:04:49;9.13;;;2.70;;
71303;SDS011;59091;47.446;19.148;2023-05-02T15:07:15;9.77;;;2.70;;
71303;SDS011;59091;47.446;19.148;2023-05-02T15:09:40;4.45;;;2.30;;
71303;SDS011;59091;47.446;19.148;2023-05-02T15:12:06;3.17;;;2.10;;
71303;SDS011;59091;47.446;19.148;2023-05-02T15:14:31;5.15;;;2.30;;
71303;SDS011;59091;47.446;19.148;2023-05-02T15:16:57;10.57;;;2.63;;